sensor_id;sensor_type;location;lat;lon;timestamp;P1;durP1;ratioP1;P2;durP2;ratioP2
29776;SDS011;16677;52.224;7.484;2023-01-15T00:02:13;6.18;;;1.80;;
29776;SDS011;16677;52.224;7.484;2023-01-15T00:04:42;3.93;;;1.90;;
29776;SDS011;16677;52.224;7.484;2023-01-15T00:07:09;6.20;;;2.00;;
29776;SDS011;16677;52.224;7.484;2023-01-15T00:09:36;5.50;;;1.80;;
29776;SDS011;16677;52.224;7.484;2023-01-15T00:12:03;6.30;;;2.10;;
29776;SDS011;16677;52.224;7.484;2023-01-15T00:14:30;5.38;;;1.90;;
29776;SDS011;16677;52.224;7.484;2023-01-15T00:16:57;7.47;;;1.83;;
29776;SDS011;16677;52.224;7.484;2023-01-15T00:19:24;7.37;;;2.10;;
29776;SDS011;16677;52.224;7.484;2023-01-15T00:21:51;6.03;;;2.20;;
29776;SDS011;16677;52.224;7.484;2023-01-15T00:24:19;6.88;;;2.08;;
29776;SDS011;16677;52.224;7.484;2023-01-15T00:27:04;9.82;;;2.25;;
29776;SDS011;16677;52.224;7.484;2023-01-15T00:29:50;6.07;;;2.30;;
29776;SDS011;16677;52.224;7.484;2023-01-15T00:32:17;9.65;;;2.42;;
29776;SDS011;16677;52.224;7.484;2023-01-15T00:34:43;8.65;;;2.55;;
29776;SDS011;16677;52.224;7.484;2023-01-15T00:37:10;6.97;;;2.38;;
29776;SDS011;16677;52.224;7.484;2023-01-15T00:39:37;6.80;;;2.47;;
29776;SDS011;16677;52.224;7.484;2023-01-15T00:42:04;8.02;;;2.33;;
29776;SDS011;16677;52.224;7.484;2023-01-15T00:44:31;8.93;;;2.60;;
29776;SDS011;16677;52.224;7.484;2023-01-15T00:46:59;7.63;;;2.42;;
29776;SDS011;16677;52.224;7.484;2023-01-15T00:49:26;10.80;;;2.70;;
29776;SDS011;16677;52.224;7.484;2023-01-15T00:51:53;7.10;;;2.40;;
29776;SDS011;16677;52.224;7.484;2023-01-15T00:54:20;8.45;;;2.55;;
29776;SDS011;16677;52.224;7.484;2023-01-15T00:56:47;9.18;;;2.33;;
29776;SDS011;16677;52.224;7.484;2023-01-15T00:59:14;8.10;;;2.38;;
29776;SDS011;16677;52.224;7.484;2023-01-15T01:01:41;8.23;;;2.43;;
29776;SDS011;16677;52.224;7.484;2023-01-15T01:04:08;6.97;;;2.08;;
29776;SDS011;16677;52.224;7.484;2023-01-15T01:06:35;9.18;;;2.10;;
29776;SDS011;16677;52.224;7.484;2023-01-15T01:09:02;7.20;;;2.13;;
29776;SDS011;16677;52.224;7.484;2023-01-15T01:11:29;7.63;;;2.03;;
29776;SDS011;16677;52.224;7.484;2023-01-15T01:14:00;6.63;;;2.00;;
29776;SDS011;16677;52.224;7.484;2023-01-15T01:16:29;7.65;;;2.38;;
29776;SDS011;16677;52.224;7.484;2023-01-15T01:19:01;7.72;;;2.30;;
29776;SDS011;16677;52.224;7.484;2023-01-15T01:21:30;7.18;;;2.22;;
29776;SDS011;16677;52.224;7.484;2023-01-15T01:23:58;7.90;;;2.20;;
29776;SDS011;16677;52.224;7.484;2023-01-15T01:26:27;8.57;;;2.45;;
29776;SDS011;16677;52.224;7.484;2023-01-15T01:28:55;8.00;;;2.47;;
29776;SDS011;16677;52.224;7.484;2023-01-15T01:31:22;9.48;;;2.35;;
29776;SDS011;16677;52.224;7.484;2023-01-15T01:33:51;8.52;;;2.25;;
29776;SDS011;16677;52.224;7.484;2023-01-15T01:36:24;8.35;;;2.45;;
29776;SDS011;16677;52.224;7.484;2023-01-15T01:38:56;7.80;;;2.20;;
29776;SDS011;16677;52.224;7.484;2023-01-15T01:41:24;6.90;;;1.95;;
29776;SDS011;16677;52.224;7.484;2023-01-15T01:46:22;7.97;;;2.25;;
29776;SDS011;16677;52.224;7.484;2023-01-15T01:48:51;7.60;;;2.13;;
29776;SDS011;16677;52.224;7.484;2023-01-15T01:51:24;8.82;;;2.60;;
29776;SDS011;16677;52.224;7.484;2023-01-15T01:53:54;10.95;;;2.80;;
29776;SDS011;16677;52.224;7.484;2023-01-15T01:56:22;9.57;;;2.50;;
29776;SDS011;16677;52.224;7.484;2023-01-15T01:58:50;8.55;;;2.33;;
29776;SDS011;16677;52.224;7.484;2023-01-15T02:01:19;7.88;;;2.33;;
29776;SDS011;16677;52.224;7.484;2023-01-15T02:03:49;7.47;;;2.15;;
29776;SDS011;16677;52.224;7.484;2023-01-15T02:06:17;6.95;;;2.10;;
29776;SDS011;16677;52.224;7.484;2023-01-15T02:08:46;10.20;;;2.47;;
29776;SDS011;16677;52.224;7.484;2023-01-15T02:11:15;9.93;;;2.60;;
29776;SDS011;16677;52.224;7.484;2023-01-15T02:14:01;8.88;;;2.70;;
29776;SDS011;16677;52.224;7.484;2023-01-15T02:22:27;7.68;;;2.10;;
29776;SDS011;16677;52.224;7.484;2023-01-15T02:28:30;9.55;;;2.42;;
29776;SDS011;16677;52.224;7.484;2023-01-15T02:31:08;8.63;;;2.17;;
29776;SDS011;16677;52.224;7.484;2023-01-15T02:36:40;6.68;;;2.38;;
29776;SDS011;16677;52.224;7.484;2023-01-15T02:39:11;8.05;;;2.40;;
29776;SDS011;16677;52.224;7.484;2023-01-15T02:41:45;10.55;;;2.05;;
29776;SDS011;16677;52.224;7.484;2023-01-15T02:44:31;7.87;;;2.30;;
29776;SDS011;16677;52.224;7.484;2023-01-15T02:47:04;6.15;;;2.08;;
29776;SDS011;16677;52.224;7.484;2023-01-15T02:49:56;6.28;;;2.10;;
29776;SDS011;16677;52.224;7.484;2023-01-15T02:52:44;5.63;;;2.00;;
29776;SDS011;16677;52.224;7.484;2023-01-15T02:55:26;6.85;;;2.30;;
29776;SDS011;16677;52.224;7.484;2023-01-15T02:58:18;7.00;;;2.50;;
29776;SDS011;16677;52.224;7.484;2023-01-15T03:00:53;8.32;;;2.30;;
29776;SDS011;16677;52.224;7.484;2023-01-15T03:06:56;9.20;;;2.50;;
29776;SDS011;16677;52.224;7.484;2023-01-15T03:09:34;7.88;;;2.38;;
29776;SDS011;16677;52.224;7.484;2023-01-15T03:17:53;6.33;;;2.13;;
29776;SDS011;16677;52.224;7.484;2023-01-15T03:20:24;7.03;;;2.10;;
29776;SDS011;16677;52.224;7.484;2023-01-15T03:22:58;6.47;;;2.07;;
29776;SDS011;16677;52.224;7.484;2023-01-15T03:25:32;5.55;;;2.22;;
29776;SDS011;16677;52.224;7.484;2023-01-15T03:28:03;6.70;;;2.13;;
29776;SDS011;16677;52.224;7.484;2023-01-15T03:30:32;6.50;;;2.28;;
29776;SDS011;16677;52.224;7.484;2023-01-15T03:32:59;4.70;;;2.38;;
29776;SDS011;16677;52.224;7.484;2023-01-15T03:38:36;5.88;;;1.92;;
29776;SDS011;16677;52.224;7.484;2023-01-15T03:46:51;4.28;;;1.80;;
29776;SDS011;16677;52.224;7.484;2023-01-15T03:52:29;6.97;;;2.40;;
29776;SDS011;16677;52.224;7.484;2023-01-15T03:58:12;6.97;;;2.63;;
29776;SDS011;16677;52.224;7.484;2023-01-15T04:00:54;7.30;;;2.10;;
29776;SDS011;16677;52.224;7.484;2023-01-15T04:03:25;7.03;;;2.33;;
29776;SDS011;16677;52.224;7.484;2023-01-15T04:05:55;8.15;;;2.17;;
29776;SDS011;16677;52.224;7.484;2023-01-15T04:08:24;8.70;;;2.37;;
29776;SDS011;16677;52.224;7.484;2023-01-15T04:10:55;6.53;;;2.65;;
29776;SDS011;16677;52.224;7.484;2023-01-15T04:13:24;4.68;;;2.03;;
29776;SDS011;16677;52.224;7.484;2023-01-15T04:15:53;7.97;;;2.15;;
29776;SDS011;16677;52.224;7.484;2023-01-15T04:18:20;6.93;;;2.08;;
29776;SDS011;16677;52.224;7.484;2023-01-15T04:20:47;5.85;;;2.25;;
29776;SDS011;16677;52.224;7.484;2023-01-15T04:23:15;6.70;;;2.10;;
29776;SDS011;16677;52.224;7.484;2023-01-15T04:25:42;9.07;;;2.47;;
29776;SDS011;16677;52.224;7.484;2023-01-15T04:28:09;7.75;;;2.30;;
29776;SDS011;16677;52.224;7.484;2023-01-15T04:30:36;8.88;;;2.50;;
29776;SDS011;16677;52.224;7.484;2023-01-15T04:33:03;6.75;;;2.30;;
29776;SDS011;16677;52.224;7.484;2023-01-15T04:35:30;4.40;;;1.90;;
29776;SDS011;16677;52.224;7.484;2023-01-15T04:37:57;7.90;;;2.47;;
29776;SDS011;16677;52.224;7.484;2023-01-15T04:40:25;5.32;;;1.90;;
29776;SDS011;16677;52.224;7.484;2023-01-15T04:43:12;8.75;;;2.30;;
29776;SDS011;16677;52.224;7.484;2023-01-15T04:45:58;7.53;;;2.10;;
29776;SDS011;16677;52.224;7.484;2023-01-15T04:48:25;6.17;;;2.30;;
29776;SDS011;16677;52.224;7.484;2023-01-15T04:50:52;9.77;;;2.40;;
29776;SDS011;16677;52.224;7.484;2023-01-15T04:53:19;8.55;;;2.40;;
29776;SDS011;16677;52.224;7.484;2023-01-15T04:55:46;8.82;;;2.10;;
29776;SDS011;16677;52.224;7.484;2023-01-15T04:58:13;6.95;;;1.92;;
29776;SDS011;16677;52.224;7.484;2023-01-15T05:00:40;5.90;;;2.10;;
29776;SDS011;16677;52.224;7.484;2023-01-15T05:03:07;8.73;;;2.28;;
29776;SDS011;16677;52.224;7.484;2023-01-15T05:05:34;10.90;;;2.67;;
29776;SDS011;16677;52.224;7.484;2023-01-15T05:08:01;7.88;;;2.28;;
29776;SDS011;16677;52.224;7.484;2023-01-15T05:10:28;8.20;;;2.58;;
29776;SDS011;16677;52.224;7.484;2023-01-15T05:12:54;7.90;;;2.53;;
29776;SDS011;16677;52.224;7.484;2023-01-15T05:15:21;6.15;;;2.38;;
29776;SDS011;16677;52.224;7.484;2023-01-15T05:17:48;5.88;;;2.05;;
29776;SDS011;16677;52.224;7.484;2023-01-15T05:20:15;8.00;;;2.38;;
29776;SDS011;16677;52.224;7.484;2023-01-15T05:22:42;7.37;;;2.43;;
29776;SDS011;16677;52.224;7.484;2023-01-15T05:25:09;7.60;;;2.30;;
29776;SDS011;16677;52.224;7.484;2023-01-15T05:27:36;5.72;;;2.28;;
29776;SDS011;16677;52.224;7.484;2023-01-15T05:30:03;8.63;;;2.45;;
29776;SDS011;16677;52.224;7.484;2023-01-15T05:32:30;8.85;;;2.47;;
29776;SDS011;16677;52.224;7.484;2023-01-15T05:34:57;11.80;;;2.65;;
29776;SDS011;16677;52.224;7.484;2023-01-15T05:37:24;8.45;;;2.72;;
29776;SDS011;16677;52.224;7.484;2023-01-15T05:39:51;8.45;;;2.80;;
29776;SDS011;16677;52.224;7.484;2023-01-15T05:42:18;7.43;;;2.50;;
29776;SDS011;16677;52.224;7.484;2023-01-15T05:44:44;7.57;;;2.30;;
29776;SDS011;16677;52.224;7.484;2023-01-15T05:47:12;10.48;;;2.88;;
29776;SDS011;16677;52.224;7.484;2023-01-15T05:49:39;7.60;;;2.65;;
29776;SDS011;16677;52.224;7.484;2023-01-15T05:52:06;7.80;;;2.55;;
29776;SDS011;16677;52.224;7.484;2023-01-15T05:54:34;8.48;;;2.33;;
29776;SDS011;16677;52.224;7.484;2023-01-15T05:57:02;9.15;;;2.40;;
29776;SDS011;16677;52.224;7.484;2023-01-15T05:59:29;10.10;;;2.50;;
29776;SDS011;16677;52.224;7.484;2023-01-15T06:01:58;7.30;;;2.40;;
29776;SDS011;16677;52.224;7.484;2023-01-15T06:04:25;10.25;;;2.60;;
29776;SDS011;16677;52.224;7.484;2023-01-15T06:06:52;7.20;;;2.20;;
29776;SDS011;16677;52.224;7.484;2023-01-15T06:09:20;10.18;;;2.47;;
29776;SDS011;16677;52.224;7.484;2023-01-15T06:11:49;8.52;;;2.80;;
29776;SDS011;16677;52.224;7.484;2023-01-15T06:14:16;11.55;;;2.75;;
29776;SDS011;16677;52.224;7.484;2023-01-15T06:16:43;10.13;;;2.53;;
29776;SDS011;16677;52.224;7.484;2023-01-15T06:19:10;8.30;;;2.70;;
29776;SDS011;16677;52.224;7.484;2023-01-15T06:21:39;8.65;;;2.60;;
29776;SDS011;16677;52.224;7.484;2023-01-15T06:24:06;9.97;;;2.50;;
29776;SDS011;16677;52.224;7.484;2023-01-15T06:26:34;7.72;;;2.50;;
29776;SDS011;16677;52.224;7.484;2023-01-15T06:29:00;9.07;;;2.63;;
29776;SDS011;16677;52.224;7.484;2023-01-15T06:31:27;7.60;;;2.75;;
29776;SDS011;16677;52.224;7.484;2023-01-15T06:33:54;7.97;;;2.47;;
29776;SDS011;16677;52.224;7.484;2023-01-15T06:36:22;8.77;;;2.72;;
29776;SDS011;16677;52.224;7.484;2023-01-15T06:38:51;11.80;;;2.73;;
29776;SDS011;16677;52.224;7.484;2023-01-15T06:41:19;9.27;;;3.00;;
29776;SDS011;16677;52.224;7.484;2023-01-15T06:44:16;8.73;;;2.65;;
29776;SDS011;16677;52.224;7.484;2023-01-15T06:47:10;8.18;;;2.80;;
29776;SDS011;16677;52.224;7.484;2023-01-15T06:49:53;10.68;;;2.53;;
29776;SDS011;16677;52.224;7.484;2023-01-15T06:52:23;8.60;;;2.35;;
29776;SDS011;16677;52.224;7.484;2023-01-15T06:54:51;7.72;;;2.33;;
29776;SDS011;16677;52.224;7.484;2023-01-15T06:57:18;9.60;;;2.58;;
29776;SDS011;16677;52.224;7.484;2023-01-15T06:59:46;8.77;;;2.47;;
29776;SDS011;16677;52.224;7.484;2023-01-15T07:02:13;11.00;;;2.95;;
29776;SDS011;16677;52.224;7.484;2023-01-15T07:04:40;9.85;;;3.30;;
29776;SDS011;16677;52.224;7.484;2023-01-15T07:07:07;10.93;;;2.75;;
29776;SDS011;16677;52.224;7.484;2023-01-15T07:09:34;7.57;;;2.63;;
29776;SDS011;16677;52.224;7.484;2023-01-15T07:12:02;9.77;;;2.65;;
29776;SDS011;16677;52.224;7.484;2023-01-15T07:14:29;9.90;;;3.43;;
29776;SDS011;16677;52.224;7.484;2023-01-15T07:16:57;11.07;;;3.00;;
29776;SDS011;16677;52.224;7.484;2023-01-15T07:19:24;8.40;;;2.88;;
29776;SDS011;16677;52.224;7.484;2023-01-15T07:21:53;11.63;;;3.53;;
29776;SDS011;16677;52.224;7.484;2023-01-15T07:24:19;11.93;;;3.00;;
29776;SDS011;16677;52.224;7.484;2023-01-15T07:26:46;11.65;;;2.95;;
29776;SDS011;16677;52.224;7.484;2023-01-15T07:29:13;10.93;;;3.10;;
29776;SDS011;16677;52.224;7.484;2023-01-15T07:31:40;9.20;;;2.80;;
29776;SDS011;16677;52.224;7.484;2023-01-15T07:34:08;10.52;;;3.25;;
29776;SDS011;16677;52.224;7.484;2023-01-15T07:36:35;14.38;;;3.25;;
29776;SDS011;16677;52.224;7.484;2023-01-15T07:39:05;8.88;;;2.90;;
29776;SDS011;16677;52.224;7.484;2023-01-15T07:41:34;8.43;;;2.78;;
29776;SDS011;16677;52.224;7.484;2023-01-15T07:44:19;8.75;;;2.40;;
29776;SDS011;16677;52.224;7.484;2023-01-15T07:50:21;9.55;;;2.28;;
29776;SDS011;16677;52.224;7.484;2023-01-15T07:52:49;8.05;;;2.50;;
29776;SDS011;16677;52.224;7.484;2023-01-15T07:55:18;7.82;;;2.35;;
29776;SDS011;16677;52.224;7.484;2023-01-15T07:57:46;9.88;;;2.42;;
29776;SDS011;16677;52.224;7.484;2023-01-15T08:00:14;9.60;;;2.70;;
29776;SDS011;16677;52.224;7.484;2023-01-15T08:02:45;10.73;;;3.03;;
29776;SDS011;16677;52.224;7.484;2023-01-15T08:05:15;7.25;;;2.40;;
29776;SDS011;16677;52.224;7.484;2023-01-15T08:07:42;9.07;;;2.70;;
29776;SDS011;16677;52.224;7.484;2023-01-15T08:10:11;10.85;;;3.15;;
29776;SDS011;16677;52.224;7.484;2023-01-15T08:12:39;8.90;;;2.70;;
29776;SDS011;16677;52.224;7.484;2023-01-15T08:15:25;7.47;;;2.40;;
29776;SDS011;16677;52.224;7.484;2023-01-15T08:17:52;9.52;;;2.90;;
29776;SDS011;16677;52.224;7.484;2023-01-15T08:20:23;8.90;;;2.80;;
29776;SDS011;16677;52.224;7.484;2023-01-15T08:22:54;10.70;;;3.30;;
29776;SDS011;16677;52.224;7.484;2023-01-15T08:25:22;8.30;;;3.30;;
29776;SDS011;16677;52.224;7.484;2023-01-15T08:27:50;7.95;;;3.13;;
29776;SDS011;16677;52.224;7.484;2023-01-15T08:30:22;9.85;;;3.30;;
29776;SDS011;16677;52.224;7.484;2023-01-15T08:32:59;11.23;;;3.03;;
29776;SDS011;16677;52.224;7.484;2023-01-15T08:35:33;8.35;;;2.55;;
29776;SDS011;16677;52.224;7.484;2023-01-15T08:38:04;8.13;;;2.97;;
29776;SDS011;16677;52.224;7.484;2023-01-15T08:40:53;8.60;;;2.78;;
29776;SDS011;16677;52.224;7.484;2023-01-15T08:43:32;10.60;;;3.03;;
29776;SDS011;16677;52.224;7.484;2023-01-15T08:46:02;9.68;;;2.78;;
29776;SDS011;16677;52.224;7.484;2023-01-15T08:48:50;7.57;;;2.83;;
29776;SDS011;16677;52.224;7.484;2023-01-15T08:51:22;5.35;;;2.33;;
29776;SDS011;16677;52.224;7.484;2023-01-15T08:53:50;8.38;;;3.25;;
29776;SDS011;16677;52.224;7.484;2023-01-15T08:56:39;10.10;;;2.88;;
29776;SDS011;16677;52.224;7.484;2023-01-15T08:59:06;10.48;;;3.38;;
29776;SDS011;16677;52.224;7.484;2023-01-15T09:01:38;9.35;;;3.17;;
29776;SDS011;16677;52.224;7.484;2023-01-15T09:04:09;9.73;;;2.97;;
29776;SDS011;16677;52.224;7.484;2023-01-15T09:06:40;7.68;;;2.80;;
29776;SDS011;16677;52.224;7.484;2023-01-15T09:09:14;6.75;;;2.58;;
29776;SDS011;16677;52.224;7.484;2023-01-15T09:11:41;8.85;;;3.00;;
29776;SDS011;16677;52.224;7.484;2023-01-15T09:14:12;7.35;;;2.75;;
29776;SDS011;16677;52.224;7.484;2023-01-15T09:17:05;10.93;;;3.08;;
29776;SDS011;16677;52.224;7.484;2023-01-15T09:19:32;9.00;;;2.83;;
29776;SDS011;16677;52.224;7.484;2023-01-15T09:21:59;10.35;;;3.10;;
29776;SDS011;16677;52.224;7.484;2023-01-15T09:24:39;8.90;;;2.90;;
29776;SDS011;16677;52.224;7.484;2023-01-15T09:27:12;9.82;;;2.55;;
29776;SDS011;16677;52.224;7.484;2023-01-15T09:29:41;8.50;;;2.42;;
29776;SDS011;16677;52.224;7.484;2023-01-15T09:32:12;9.00;;;2.55;;
29776;SDS011;16677;52.224;7.484;2023-01-15T09:34:39;7.43;;;2.47;;
29776;SDS011;16677;52.224;7.484;2023-01-15T09:37:10;8.57;;;2.67;;
29776;SDS011;16677;52.224;7.484;2023-01-15T09:40:04;9.60;;;2.72;;
29776;SDS011;16677;52.224;7.484;2023-01-15T09:42:51;6.88;;;2.67;;
29776;SDS011;16677;52.224;7.484;2023-01-15T09:48:25;7.43;;;2.88;;
29776;SDS011;16677;52.224;7.484;2023-01-15T09:51:47;6.75;;;2.58;;
29776;SDS011;16677;52.224;7.484;2023-01-15T09:56:43;7.57;;;2.85;;
29776;SDS011;16677;52.224;7.484;2023-01-15T09:59:18;10.25;;;2.60;;
29776;SDS011;16677;52.224;7.484;2023-01-15T10:02:29;8.45;;;2.40;;
29776;SDS011;16677;52.224;7.484;2023-01-15T10:05:17;5.88;;;2.25;;
29776;SDS011;16677;52.224;7.484;2023-01-15T10:08:10;8.07;;;2.58;;
29776;SDS011;16677;52.224;7.484;2023-01-15T10:10:58;6.60;;;2.40;;
29776;SDS011;16677;52.224;7.484;2023-01-15T10:13:45;7.93;;;2.60;;
29776;SDS011;16677;52.224;7.484;2023-01-15T10:16:26;7.68;;;2.13;;
29776;SDS011;16677;52.224;7.484;2023-01-15T10:19:04;5.57;;;2.58;;
29776;SDS011;16677;52.224;7.484;2023-01-15T10:27:45;7.20;;;2.40;;
29776;SDS011;16677;52.224;7.484;2023-01-15T10:32:50;7.40;;;2.70;;
29776;SDS011;16677;52.224;7.484;2023-01-15T10:46:21;8.07;;;2.40;;
29776;SDS011;16677;52.224;7.484;2023-01-15T10:49:13;8.35;;;2.92;;
29776;SDS011;16677;52.224;7.484;2023-01-15T10:51:48;8.48;;;2.47;;
29776;SDS011;16677;52.224;7.484;2023-01-15T10:54:26;6.57;;;1.92;;
29776;SDS011;16677;52.224;7.484;2023-01-15T10:57:07;7.57;;;2.45;;
29776;SDS011;16677;52.224;7.484;2023-01-15T10:59:49;6.85;;;2.20;;
29776;SDS011;16677;52.224;7.484;2023-01-15T11:02:34;6.93;;;2.17;;
29776;SDS011;16677;52.224;7.484;2023-01-15T11:05:08;6.50;;;2.30;;
29776;SDS011;16677;52.224;7.484;2023-01-15T11:07:45;5.67;;;1.83;;
29776;SDS011;16677;52.224;7.484;2023-01-15T11:10:39;7.23;;;2.43;;
29776;SDS011;16677;52.224;7.484;2023-01-15T11:13:27;6.90;;;2.35;;
29776;SDS011;16677;52.224;7.484;2023-01-15T11:16:14;8.48;;;2.78;;
29776;SDS011;16677;52.224;7.484;2023-01-15T11:19:04;8.00;;;2.63;;
29776;SDS011;16677;52.224;7.484;2023-01-15T11:22:13;6.90;;;2.38;;
29776;SDS011;16677;52.224;7.484;2023-01-15T11:27:30;7.03;;;2.42;;
29776;SDS011;16677;52.224;7.484;2023-01-15T11:30:03;6.97;;;1.92;;
29776;SDS011;16677;52.224;7.484;2023-01-15T11:32:35;6.68;;;1.95;;
29776;SDS011;16677;52.224;7.484;2023-01-15T11:37:43;6.82;;;2.30;;
29776;SDS011;16677;52.224;7.484;2023-01-15T11:40:17;6.20;;;2.00;;
29776;SDS011;16677;52.224;7.484;2023-01-15T11:42:58;7.27;;;2.40;;
29776;SDS011;16677;52.224;7.484;2023-01-15T11:45:50;8.00;;;2.45;;
29776;SDS011;16677;52.224;7.484;2023-01-15T11:48:42;6.03;;;2.33;;
29776;SDS011;16677;52.224;7.484;2023-01-15T11:51:51;7.75;;;2.28;;
29776;SDS011;16677;52.224;7.484;2023-01-15T11:54:18;4.93;;;1.80;;
29776;SDS011;16677;52.224;7.484;2023-01-15T11:57:07;8.75;;;2.78;;
29776;SDS011;16677;52.224;7.484;2023-01-15T11:59:36;6.82;;;2.28;;
29776;SDS011;16677;52.224;7.484;2023-01-15T12:02:37;7.32;;;2.50;;
29776;SDS011;16677;52.224;7.484;2023-01-15T12:05:26;8.88;;;2.53;;
29776;SDS011;16677;52.224;7.484;2023-01-15T12:07:57;9.35;;;2.30;;
29776;SDS011;16677;52.224;7.484;2023-01-15T12:10:30;7.03;;;2.30;;
29776;SDS011;16677;52.224;7.484;2023-01-15T12:24:46;13.93;;;7.78;;
29776;SDS011;16677;52.224;7.484;2023-01-15T12:30:22;7.60;;;2.70;;
29776;SDS011;16677;52.224;7.484;2023-01-15T12:36:09;9.05;;;3.00;;
29776;SDS011;16677;52.224;7.484;2023-01-15T12:44:39;10.55;;;2.58;;
29776;SDS011;16677;52.224;7.484;2023-01-15T12:47:32;6.97;;;1.92;;
29776;SDS011;16677;52.224;7.484;2023-01-15T12:53:12;6.35;;;2.10;;
29776;SDS011;16677;52.224;7.484;2023-01-15T13:04:13;7.05;;;2.47;;
29776;SDS011;16677;52.224;7.484;2023-01-15T13:06:55;7.20;;;2.42;;
29776;SDS011;16677;52.224;7.484;2023-01-15T13:09:33;5.75;;;2.08;;
29776;SDS011;16677;52.224;7.484;2023-01-15T13:12:20;7.40;;;2.27;;
29776;SDS011;16677;52.224;7.484;2023-01-15T13:14:51;6.65;;;2.30;;
29776;SDS011;16677;52.224;7.484;2023-01-15T13:17:23;5.38;;;2.42;;
29776;SDS011;16677;52.224;7.484;2023-01-15T13:22:31;6.60;;;2.13;;
29776;SDS011;16677;52.224;7.484;2023-01-15T13:33:56;7.38;;;1.95;;
29776;SDS011;16677;52.224;7.484;2023-01-15T13:36:38;5.82;;;2.08;;
29776;SDS011;16677;52.224;7.484;2023-01-15T13:39:18;5.40;;;1.90;;
29776;SDS011;16677;52.224;7.484;2023-01-15T13:41:51;6.38;;;2.25;;
29776;SDS011;16677;52.224;7.484;2023-01-15T13:44:44;5.35;;;2.08;;
29776;SDS011;16677;52.224;7.484;2023-01-15T13:47:27;6.85;;;1.88;;
29776;SDS011;16677;52.224;7.484;2023-01-15T13:50:00;7.83;;;2.00;;
29776;SDS011;16677;52.224;7.484;2023-01-15T13:52:34;5.32;;;2.35;;
29776;SDS011;16677;52.224;7.484;2023-01-15T13:55:15;6.85;;;2.60;;
29776;SDS011;16677;52.224;7.484;2023-01-15T13:57:52;4.53;;;2.50;;
29776;SDS011;16677;52.224;7.484;2023-01-15T14:00:32;4.80;;;2.10;;
29776;SDS011;16677;52.224;7.484;2023-01-15T14:06:10;2.03;;;1.38;;
29776;SDS011;16677;52.224;7.484;2023-01-15T14:08:43;4.38;;;1.85;;
29776;SDS011;16677;52.224;7.484;2023-01-15T14:14:42;5.32;;;1.58;;
29776;SDS011;16677;52.224;7.484;2023-01-15T14:36:51;7.78;;;2.08;;
29776;SDS011;16677;52.224;7.484;2023-01-15T14:39:35;6.18;;;1.90;;
29776;SDS011;16677;52.224;7.484;2023-01-15T14:42:33;5.72;;;1.90;;
29776;SDS011;16677;52.224;7.484;2023-01-15T14:45:25;5.78;;;2.00;;
29776;SDS011;16677;52.224;7.484;2023-01-15T14:47:54;4.85;;;1.95;;
29776;SDS011;16677;52.224;7.484;2023-01-15T14:52:54;5.43;;;2.20;;
29776;SDS011;16677;52.224;7.484;2023-01-15T14:55:54;3.88;;;1.88;;
29776;SDS011;16677;52.224;7.484;2023-01-15T15:01:24;7.75;;;3.10;;
29776;SDS011;16677;52.224;7.484;2023-01-15T15:07:03;5.97;;;1.55;;
29776;SDS011;16677;52.224;7.484;2023-01-15T15:12:19;2.77;;;1.77;;
29776;SDS011;16677;52.224;7.484;2023-01-15T15:26:35;5.13;;;2.10;;
29776;SDS011;16677;52.224;7.484;2023-01-15T15:29:10;3.50;;;2.00;;
29776;SDS011;16677;52.224;7.484;2023-01-15T15:31:40;6.13;;;1.98;;
29776;SDS011;16677;52.224;7.484;2023-01-15T15:34:29;6.63;;;2.50;;
29776;SDS011;16677;52.224;7.484;2023-01-15T15:37:11;6.65;;;2.30;;
29776;SDS011;16677;52.224;7.484;2023-01-15T15:40:00;6.82;;;2.42;;
29776;SDS011;16677;52.224;7.484;2023-01-15T15:42:35;6.10;;;2.70;;
29776;SDS011;16677;52.224;7.484;2023-01-15T15:45:25;5.38;;;2.28;;
29776;SDS011;16677;52.224;7.484;2023-01-15T15:48:15;3.72;;;1.92;;
29776;SDS011;16677;52.224;7.484;2023-01-15T15:57:03;5.15;;;2.00;;
29776;SDS011;16677;52.224;7.484;2023-01-15T16:07:51;4.57;;;1.73;;
29776;SDS011;16677;52.224;7.484;2023-01-15T16:10:28;5.75;;;2.20;;
29776;SDS011;16677;52.224;7.484;2023-01-15T16:12:58;5.13;;;1.83;;
29776;SDS011;16677;52.224;7.484;2023-01-15T16:15:30;5.17;;;2.10;;
29776;SDS011;16677;52.224;7.484;2023-01-15T16:18:03;5.30;;;2.03;;
29776;SDS011;16677;52.224;7.484;2023-01-15T16:20:31;4.05;;;2.03;;
29776;SDS011;16677;52.224;7.484;2023-01-15T16:23:00;4.82;;;2.00;;
29776;SDS011;16677;52.224;7.484;2023-01-15T16:25:30;4.90;;;1.95;;
29776;SDS011;16677;52.224;7.484;2023-01-15T16:28:00;5.40;;;2.20;;
29776;SDS011;16677;52.224;7.484;2023-01-15T16:30:28;4.38;;;1.90;;
29776;SDS011;16677;52.224;7.484;2023-01-15T16:33:00;5.47;;;2.50;;
29776;SDS011;16677;52.224;7.484;2023-01-15T16:35:32;4.28;;;1.92;;
29776;SDS011;16677;52.224;7.484;2023-01-15T16:38:02;6.78;;;2.40;;
29776;SDS011;16677;52.224;7.484;2023-01-15T16:40:31;7.05;;;2.60;;
29776;SDS011;16677;52.224;7.484;2023-01-15T16:43:10;5.10;;;2.30;;
29776;SDS011;16677;52.224;7.484;2023-01-15T16:45:45;8.27;;;2.78;;
29776;SDS011;16677;52.224;7.484;2023-01-15T16:48:36;5.53;;;2.22;;
29776;SDS011;16677;52.224;7.484;2023-01-15T16:54:01;7.93;;;2.40;;
29776;SDS011;16677;52.224;7.484;2023-01-15T16:59:17;8.48;;;5.22;;
29776;SDS011;16677;52.224;7.484;2023-01-15T17:02:12;15.02;;;11.43;;
29776;SDS011;16677;52.224;7.484;2023-01-15T17:04:42;10.38;;;7.95;;
29776;SDS011;16677;52.224;7.484;2023-01-15T17:09:56;21.48;;;16.50;;
29776;SDS011;16677;52.224;7.484;2023-01-15T17:12:29;25.92;;;17.98;;
29776;SDS011;16677;52.224;7.484;2023-01-15T17:15:42;23.70;;;17.98;;
29776;SDS011;16677;52.224;7.484;2023-01-15T17:17:53;30.55;;;24.67;;
29776;SDS011;16677;52.224;7.484;2023-01-15T17:20:21;6.07;;;3.05;;
29776;SDS011;16677;52.224;7.484;2023-01-15T17:22:53;19.77;;;13.75;;
29776;SDS011;16677;52.224;7.484;2023-01-15T17:27:58;18.50;;;16.52;;
29776;SDS011;16677;52.224;7.484;2023-01-15T17:30:27;10.63;;;7.07;;
29776;SDS011;16677;52.224;7.484;2023-01-15T17:33:02;10.27;;;6.50;;
29776;SDS011;16677;52.224;7.484;2023-01-15T17:35:31;9.70;;;6.88;;
29776;SDS011;16677;52.224;7.484;2023-01-15T17:38:00;6.07;;;3.92;;
29776;SDS011;16677;52.224;7.484;2023-01-15T17:40:27;5.80;;;3.08;;
29776;SDS011;16677;52.224;7.484;2023-01-15T17:42:55;7.10;;;3.47;;
29776;SDS011;16677;52.224;7.484;2023-01-15T17:45:28;7.70;;;3.70;;
29776;SDS011;16677;52.224;7.484;2023-01-15T17:47:56;5.95;;;3.70;;
29776;SDS011;16677;52.224;7.484;2023-01-15T17:50:23;6.40;;;3.35;;
29776;SDS011;16677;52.224;7.484;2023-01-15T17:52:51;6.85;;;3.10;;
29776;SDS011;16677;52.224;7.484;2023-01-15T17:55:19;6.38;;;2.63;;
29776;SDS011;16677;52.224;7.484;2023-01-15T17:58:07;6.20;;;3.30;;
29776;SDS011;16677;52.224;7.484;2023-01-15T18:00:55;7.15;;;2.78;;
29776;SDS011;16677;52.224;7.484;2023-01-15T18:03:43;5.07;;;3.10;;
29776;SDS011;16677;52.224;7.484;2023-01-15T18:06:32;6.38;;;2.65;;
29776;SDS011;16677;52.224;7.484;2023-01-15T18:09:00;6.28;;;2.38;;
29776;SDS011;16677;52.224;7.484;2023-01-15T18:11:30;6.32;;;2.40;;
29776;SDS011;16677;52.224;7.484;2023-01-15T18:13:57;4.22;;;2.70;;
29776;SDS011;16677;52.224;7.484;2023-01-15T18:16:24;4.00;;;2.63;;
29776;SDS011;16677;52.224;7.484;2023-01-15T18:18:53;5.60;;;2.35;;
29776;SDS011;16677;52.224;7.484;2023-01-15T18:21:20;6.20;;;3.50;;
29776;SDS011;16677;52.224;7.484;2023-01-15T18:23:47;5.47;;;2.57;;
29776;SDS011;16677;52.224;7.484;2023-01-15T18:26:14;4.07;;;2.25;;
29776;SDS011;16677;52.224;7.484;2023-01-15T18:28:41;6.57;;;2.50;;
29776;SDS011;16677;52.224;7.484;2023-01-15T18:31:10;5.43;;;2.30;;
29776;SDS011;16677;52.224;7.484;2023-01-15T18:33:37;5.05;;;2.00;;
29776;SDS011;16677;52.224;7.484;2023-01-15T18:36:08;6.05;;;2.30;;
29776;SDS011;16677;52.224;7.484;2023-01-15T18:38:37;4.63;;;2.00;;